sensor_id;sensor_type;location;lat;lon;timestamp;temperature;humidity
45319;DHT22;31057;48.498;32.260;2023-12-22T00:00:31;-0.70;99.90
45319;DHT22;31057;48.498;32.260;2023-12-22T00:02:33;-0.70;99.90
45319;DHT22;31057;48.498;32.260;2023-12-22T00:04:35;-0.70;99.90
45319;DHT22;31057;48.498;32.260;2023-12-22T00:06:37;-0.70;99.90
45319;DHT22;31057;48.498;32.260;2023-12-22T00:08:39;-0.70;99.90
45319;DHT22;31057;48.498;32.260;2023-12-22T00:10:41;-0.70;99.90
45319;DHT22;31057;48.498;32.260;2023-12-22T00:12:42;-0.70;99.90
45319;DHT22;31057;48.498;32.260;2023-12-22T00:14:44;-0.60;99.90
45319;DHT22;31057;48.498;32.260;2023-12-22T00:16:46;-0.60;99.90
45319;DHT22;31057;48.498;32.260;2023-12-22T00:18:48;-0.50;99.90
45319;DHT22;31057;48.498;32.260;2023-12-22T00:20:50;-0.50;99.90
45319;DHT22;31057;48.498;32.260;2023-12-22T00:22:52;-0.60;99.90
45319;DHT22;31057;48.498;32.260;2023-12-22T00:24:54;-0.60;99.90
45319;DHT22;31057;48.498;32.260;2023-12-22T00:26:56;-0.50;99.90
45319;DHT22;31057;48.498;32.260;2023-12-22T00:28:57;-0.60;99.90
45319;DHT22;31057;48.498;32.260;2023-12-22T00:30:59;-0.60;99.90
45319;DHT22;31057;48.498;32.260;2023-12-22T00:33:01;-0.60;99.90
45319;DHT22;31057;48.498;32.260;2023-12-22T00:35:04;-0.60;99.90
45319;DHT22;31057;48.498;32.260;2023-12-22T00:37:06;-0.60;99.90
45319;DHT22;31057;48.498;32.260;2023-12-22T00:39:08;-0.70;99.90
45319;DHT22;31057;48.498;32.260;2023-12-22T00:41:10;-0.70;99.90
45319;DHT22;31057;48.498;32.260;2023-12-22T00:43:12;-0.70;99.90
45319;DHT22;31057;48.498;32.260;2023-12-22T00:45:14;-0.70;99.90
45319;DHT22;31057;48.498;32.260;2023-12-22T00:47:16;-0.70;99.90
45319;DHT22;31057;48.498;32.260;2023-12-22T00:49:18;-0.70;99.90
45319;DHT22;31057;48.498;32.260;2023-12-22T00:51:20;-0.70;99.90
45319;DHT22;31057;48.498;32.260;2023-12-22T00:53:22;-0.60;99.90
45319;DHT22;31057;48.498;32.260;2023-12-22T00:55:24;-0.50;99.90
45319;DHT22;31057;48.498;32.260;2023-12-22T00:57:25;-0.50;99.90
45319;DHT22;31057;48.498;32.260;2023-12-22T00:59:27;-0.40;99.90
45319;DHT22;31057;48.498;32.260;2023-12-22T01:01:29;-0.40;99.90
45319;DHT22;31057;48.498;32.260;2023-12-22T01:03:31;-0.40;99.90
45319;DHT22;31057;48.498;32.260;2023-12-22T01:05:36;-0.30;99.90
45319;DHT22;31057;48.498;32.260;2023-12-22T01:07:38;-0.30;99.90
45319;DHT22;31057;48.498;32.260;2023-12-22T01:09:40;-0.20;99.90
45319;DHT22;31057;48.498;32.260;2023-12-22T01:11:41;-0.30;99.90
45319;DHT22;31057;48.498;32.260;2023-12-22T01:13:43;-0.20;99.90
45319;DHT22;31057;48.498;32.260;2023-12-22T01:15:46;-0.20;99.90
45319;DHT22;31057;48.498;32.260;2023-12-22T01:17:47;-0.10;99.90
45319;DHT22;31057;48.498;32.260;2023-12-22T01:19:50;-0.10;99.90
45319;DHT22;31057;48.498;32.260;2023-12-22T01:21:53;-0.10;99.90
45319;DHT22;31057;48.498;32.260;2023-12-22T01:23:54;-0.10;99.90
45319;DHT22;31057;48.498;32.260;2023-12-22T01:25:56;-0.10;99.90
45319;DHT22;31057;48.498;32.260;2023-12-22T01:27:58;-0.10;99.90
45319;DHT22;31057;48.498;32.260;2023-12-22T01:30:04;-0.10;99.90
45319;DHT22;31057;48.498;32.260;2023-12-22T01:32:06;-0.10;99.90
45319;DHT22;31057;48.498;32.260;2023-12-22T01:34:08;-0.20;99.90
45319;DHT22;31057;48.498;32.260;2023-12-22T01:36:09;-0.20;99.90
45319;DHT22;31057;48.498;32.260;2023-12-22T01:38:11;-0.20;99.90
45319;DHT22;31057;48.498;32.260;2023-12-22T01:40:13;-0.20;99.90
45319;DHT22;31057;48.498;32.260;2023-12-22T01:42:15;-0.30;99.90
45319;DHT22;31057;48.498;32.260;2023-12-22T01:44:17;-0.30;99.90
45319;DHT22;31057;48.498;32.260;2023-12-22T01:46:19;-0.30;99.90
45319;DHT22;31057;48.498;32.260;2023-12-22T01:48:21;-0.30;99.90
45319;DHT22;31057;48.498;32.260;2023-12-22T01:50:25;-0.30;99.90
45319;DHT22;31057;48.498;32.260;2023-12-22T01:52:27;-0.30;99.90
45319;DHT22;31057;48.498;32.260;2023-12-22T01:54:29;-0.40;99.90
45319;DHT22;31057;48.498;32.260;2023-12-22T01:56:31;-0.30;99.90
45319;DHT22;31057;48.498;32.260;2023-12-22T01:58:34;-0.30;99.90
45319;DHT22;31057;48.498;32.260;2023-12-22T02:00:36;-0.30;99.90
45319;DHT22;31057;48.498;32.260;2023-12-22T02:02:38;-0.40;99.90
45319;DHT22;31057;48.498;32.260;2023-12-22T02:04:41;-0.30;99.90
45319;DHT22;31057;48.498;32.260;2023-12-22T02:06:44;-0.40;99.90
45319;DHT22;31057;48.498;32.260;2023-12-22T02:08:49;-0.40;99.90
45319;DHT22;31057;48.498;32.260;2023-12-22T02:10:50;-0.30;99.90
45319;DHT22;31057;48.498;32.260;2023-12-22T02:12:52;-0.30;99.90
45319;DHT22;31057;48.498;32.260;2023-12-22T02:14:54;-0.40;99.90
45319;DHT22;31057;48.498;32.260;2023-12-22T02:17:11;-0.30;99.90
45319;DHT22;31057;48.498;32.260;2023-12-22T02:19:27;-0.40;99.90
45319;DHT22;31057;48.498;32.260;2023-12-22T02:21:36;-0.30;99.90
45319;DHT22;31057;48.498;32.260;2023-12-22T02:23:39;-0.40;99.90
45319;DHT22;31057;48.498;32.260;2023-12-22T02:25:41;-0.40;99.90
45319;DHT22;31057;48.498;32.260;2023-12-22T02:29:53;-0.50;99.90
45319;DHT22;31057;48.498;32.260;2023-12-22T02:31:55;-0.50;99.90
45319;DHT22;31057;48.498;32.260;2023-12-22T02:33:59;-0.50;99.90
45319;DHT22;31057;48.498;32.260;2023-12-22T02:36:04;-0.40;99.90
45319;DHT22;31057;48.498;32.260;2023-12-22T02:38:07;-0.30;99.90
45319;DHT22;31057;48.498;32.260;2023-12-22T02:40:10;-0.20;99.90
45319;DHT22;31057;48.498;32.260;2023-12-22T02:42:12;-0.30;99.90
45319;DHT22;31057;48.498;32.260;2023-12-22T02:44:14;-0.40;99.90
45319;DHT22;31057;48.498;32.260;2023-12-22T02:46:16;-0.40;99.90
45319;DHT22;31057;48.498;32.260;2023-12-22T02:48:18;-0.50;99.90
45319;DHT22;31057;48.498;32.260;2023-12-22T02:50:20;-0.50;99.90
45319;DHT22;31057;48.498;32.260;2023-12-22T02:52:22;-0.60;99.90
45319;DHT22;31057;48.498;32.260;2023-12-22T02:54:24;-0.50;99.90
45319;DHT22;31057;48.498;32.260;2023-12-22T02:56:25;-0.60;99.90
45319;DHT22;31057;48.498;32.260;2023-12-22T02:58:27;-0.60;99.90
45319;DHT22;31057;48.498;32.260;2023-12-22T03:00:29;-0.60;99.90
45319;DHT22;31057;48.498;32.260;2023-12-22T03:02:31;-0.60;99.90
45319;DHT22;31057;48.498;32.260;2023-12-22T03:04:33;-0.60;99.90
45319;DHT22;31057;48.498;32.260;2023-12-22T03:06:35;-0.50;99.90
45319;DHT22;31057;48.498;32.260;2023-12-22T03:08:37;-0.50;99.90
45319;DHT22;31057;48.498;32.260;2023-12-22T03:10:39;-0.60;99.90
45319;DHT22;31057;48.498;32.260;2023-12-22T03:12:41;-0.60;99.90
45319;DHT22;31057;48.498;32.260;2023-12-22T03:14:43;-0.60;99.90
45319;DHT22;31057;48.498;32.260;2023-12-22T03:16:44;-0.60;99.90
45319;DHT22;31057;48.498;32.260;2023-12-22T03:18:46;-0.70;99.90
45319;DHT22;31057;48.498;32.260;2023-12-22T03:20:48;-0.60;99.90
45319;DHT22;31057;48.498;32.260;2023-12-22T03:22:50;-0.60;99.90
45319;DHT22;31057;48.498;32.260;2023-12-22T03:24:52;-0.70;99.90
45319;DHT22;31057;48.498;32.260;2023-12-22T03:26:54;-0.70;99.90
45319;DHT22;31057;48.498;32.260;2023-12-22T03:28:56;-0.70;99.90
45319;DHT22;31057;48.498;32.260;2023-12-22T03:30:58;-0.70;99.90
45319;DHT22;31057;48.498;32.260;2023-12-22T03:33:00;-0.70;99.90
45319;DHT22;31057;48.498;32.260;2023-12-22T03:35:02;-0.70;99.90
45319;DHT22;31057;48.498;32.260;2023-12-22T03:37:04;-0.70;99.90
45319;DHT22;31057;48.498;32.260;2023-12-22T03:39:06;-0.70;99.90
45319;DHT22;31057;48.498;32.260;2023-12-22T03:41:07;-0.60;99.90
45319;DHT22;31057;48.498;32.260;2023-12-22T03:43:09;-0.60;99.90
45319;DHT22;31057;48.498;32.260;2023-12-22T03:45:11;-0.60;99.90
45319;DHT22;31057;48.498;32.260;2023-12-22T03:47:13;-0.50;99.90
45319;DHT22;31057;48.498;32.260;2023-12-22T03:49:17;-0.50;99.90
45319;DHT22;31057;48.498;32.260;2023-12-22T03:51:19;-0.50;99.90
45319;DHT22;31057;48.498;32.260;2023-12-22T03:53:20;-0.40;99.90
45319;DHT22;31057;48.498;32.260;2023-12-22T03:55:22;-0.30;99.90
45319;DHT22;31057;48.498;32.260;2023-12-22T03:57:24;-0.30;99.90
45319;DHT22;31057;48.498;32.260;2023-12-22T03:59:26;-0.20;99.90
45319;DHT22;31057;48.498;32.260;2023-12-22T04:01:28;-0.10;99.90
45319;DHT22;31057;48.498;32.260;2023-12-22T04:03:30;-0.10;99.90
45319;DHT22;31057;48.498;32.260;2023-12-22T04:05:32;-0.10;99.90
45319;DHT22;31057;48.498;32.260;2023-12-22T04:07:33;-0.10;99.90
45319;DHT22;31057;48.498;32.260;2023-12-22T04:09:37;-0.10;99.90
45319;DHT22;31057;48.498;32.260;2023-12-22T04:11:40;-0.10;99.90
45319;DHT22;31057;48.498;32.260;2023-12-22T04:13:43;-0.10;99.90
45319;DHT22;31057;48.498;32.260;2023-12-22T04:15:44;-0.10;99.90
45319;DHT22;31057;48.498;32.260;2023-12-22T04:17:46;-0.20;99.90
45319;DHT22;31057;48.498;32.260;2023-12-22T04:19:49;-0.10;99.90
45319;DHT22;31057;48.498;32.260;2023-12-22T04:21:51;-0.20;99.90
45319;DHT22;31057;48.498;32.260;2023-12-22T04:23:52;-0.20;99.90
45319;DHT22;31057;48.498;32.260;2023-12-22T04:25:54;-0.10;99.90
45319;DHT22;31057;48.498;32.260;2023-12-22T04:27:56;-0.20;99.90
45319;DHT22;31057;48.498;32.260;2023-12-22T04:29:58;-0.20;99.90
45319;DHT22;31057;48.498;32.260;2023-12-22T04:32:00;0.00;99.90
45319;DHT22;31057;48.498;32.260;2023-12-22T04:34:02;-0.10;99.90
45319;DHT22;31057;48.498;32.260;2023-12-22T04:36:04;-0.20;99.90
45319;DHT22;31057;48.498;32.260;2023-12-22T04:38:06;-0.30;99.90
45319;DHT22;31057;48.498;32.260;2023-12-22T04:40:08;-0.10;99.90
45319;DHT22;31057;48.498;32.260;2023-12-22T04:42:10;-0.20;99.90
45319;DHT22;31057;48.498;32.260;2023-12-22T04:44:12;-0.20;99.90
45319;DHT22;31057;48.498;32.260;2023-12-22T04:46:13;0.00;99.90
45319;DHT22;31057;48.498;32.260;2023-12-22T04:48:15;-0.10;99.90
45319;DHT22;31057;48.498;32.260;2023-12-22T04:50:17;-0.20;99.90
45319;DHT22;31057;48.498;32.260;2023-12-22T04:52:19;-0.20;99.90
45319;DHT22;31057;48.498;32.260;2023-12-22T04:54:21;-0.20;99.90
45319;DHT22;31057;48.498;32.260;2023-12-22T04:56:23;-0.20;99.90
45319;DHT22;31057;48.498;32.260;2023-12-22T04:58:25;-0.10;99.90
45319;DHT22;31057;48.498;32.260;2023-12-22T05:00:27;-0.20;99.90
45319;DHT22;31057;48.498;32.260;2023-12-22T05:02:28;-0.10;99.90
45319;DHT22;31057;48.498;32.260;2023-12-22T05:04:30;0.00;99.90
45319;DHT22;31057;48.498;32.260;2023-12-22T05:06:32;0.10;99.90
45319;DHT22;31057;48.498;32.260;2023-12-22T05:08:34;0.10;99.90
45319;DHT22;31057;48.498;32.260;2023-12-22T05:10:36;0.10;99.90
45319;DHT22;31057;48.498;32.260;2023-12-22T05:12:38;0.10;99.90
45319;DHT22;31057;48.498;32.260;2023-12-22T05:14:40;0.10;99.90
45319;DHT22;31057;48.498;32.260;2023-12-22T05:16:42;0.20;99.90
45319;DHT22;31057;48.498;32.260;2023-12-22T05:18:44;0.30;99.90
45319;DHT22;31057;48.498;32.260;2023-12-22T05:20:46;0.30;99.90
45319;DHT22;31057;48.498;32.260;2023-12-22T05:22:47;0.40;99.90
45319;DHT22;31057;48.498;32.260;2023-12-22T05:24:49;0.40;99.90
45319;DHT22;31057;48.498;32.260;2023-12-22T05:26:52;0.50;99.90
45319;DHT22;31057;48.498;32.260;2023-12-22T05:28:54;0.60;99.90
45319;DHT22;31057;48.498;32.260;2023-12-22T05:30:56;0.60;99.90
45319;DHT22;31057;48.498;32.260;2023-12-22T05:32:57;0.60;99.90
45319;DHT22;31057;48.498;32.260;2023-12-22T05:34:59;0.70;99.90
45319;DHT22;31057;48.498;32.260;2023-12-22T05:37:01;0.70;99.90
45319;DHT22;31057;48.498;32.260;2023-12-22T05:39:03;0.80;99.90
45319;DHT22;31057;48.498;32.260;2023-12-22T05:41:05;0.80;99.90
45319;DHT22;31057;48.498;32.260;2023-12-22T05:43:10;0.70;99.90
45319;DHT22;31057;48.498;32.260;2023-12-22T05:45:12;0.80;99.90
45319;DHT22;31057;48.498;32.260;2023-12-22T05:47:14;0.80;99.90
45319;DHT22;31057;48.498;32.260;2023-12-22T05:49:16;0.80;99.90
45319;DHT22;31057;48.498;32.260;2023-12-22T05:51:18;0.80;99.90
45319;DHT22;31057;48.498;32.260;2023-12-22T05:53:20;0.70;99.90
45319;DHT22;31057;48.498;32.260;2023-12-22T05:55:22;0.70;99.90
45319;DHT22;31057;48.498;32.260;2023-12-22T05:57:27;0.70;99.90
45319;DHT22;31057;48.498;32.260;2023-12-22T05:59:28;0.80;99.90
45319;DHT22;31057;48.498;32.260;2023-12-22T06:01:31;0.80;99.90
45319;DHT22;31057;48.498;32.260;2023-12-22T06:03:32;0.80;99.90
45319;DHT22;31057;48.498;32.260;2023-12-22T06:05:34;0.90;99.90
45319;DHT22;31057;48.498;32.260;2023-12-22T06:07:37;0.90;99.90
45319;DHT22;31057;48.498;32.260;2023-12-22T06:09:38;0.90;99.90
45319;DHT22;31057;48.498;32.260;2023-12-22T06:11:41;0.90;99.90
45319;DHT22;31057;48.498;32.260;2023-12-22T06:13:43;0.90;99.90
45319;DHT22;31057;48.498;32.260;2023-12-22T06:15:45;0.90;99.90
45319;DHT22;31057;48.498;32.260;2023-12-22T06:17:46;1.20;99.90
45319;DHT22;31057;48.498;32.260;2023-12-22T06:19:49;1.10;99.90
45319;DHT22;31057;48.498;32.260;2023-12-22T06:21:50;1.30;99.90
45319;DHT22;31057;48.498;32.260;2023-12-22T06:23:52;1.20;99.90
45319;DHT22;31057;48.498;32.260;2023-12-22T06:25:54;1.20;99.90
45319;DHT22;31057;48.498;32.260;2023-12-22T06:27:56;1.10;99.90
45319;DHT22;31057;48.498;32.260;2023-12-22T06:29:58;1.10;99.90
45319;DHT22;31057;48.498;32.260;2023-12-22T06:32:00;1.20;99.90
45319;DHT22;31057;48.498;32.260;2023-12-22T06:34:02;1.20;99.90
45319;DHT22;31057;48.498;32.260;2023-12-22T06:36:04;1.20;99.90
45319;DHT22;31057;48.498;32.260;2023-12-22T06:38:06;1.20;99.90
45319;DHT22;31057;48.498;32.260;2023-12-22T06:40:08;1.30;99.90
45319;DHT22;31057;48.498;32.260;2023-12-22T06:42:11;1.30;99.90
45319;DHT22;31057;48.498;32.260;2023-12-22T06:44:14;1.30;99.90
45319;DHT22;31057;48.498;32.260;2023-12-22T06:46:16;1.30;99.90
45319;DHT22;31057;48.498;32.260;2023-12-22T06:48:18;1.30;99.90
45319;DHT22;31057;48.498;32.260;2023-12-22T06:50:21;1.40;99.90
45319;DHT22;31057;48.498;32.260;2023-12-22T06:52:22;1.40;99.90
45319;DHT22;31057;48.498;32.260;2023-12-22T06:54:24;1.40;99.90
45319;DHT22;31057;48.498;32.260;2023-12-22T06:56:30;1.50;99.90
45319;DHT22;31057;48.498;32.260;2023-12-22T06:58:32;1.60;99.90
45319;DHT22;31057;48.498;32.260;2023-12-22T07:00:34;1.60;99.90
45319;DHT22;31057;48.498;32.260;2023-12-22T07:02:39;1.70;99.90
45319;DHT22;31057;48.498;32.260;2023-12-22T07:04:41;1.60;99.90
45319;DHT22;31057;48.498;32.260;2023-12-22T07:06:43;1.70;99.90
45319;DHT22;31057;48.498;32.260;2023-12-22T07:11:08;1.70;99.90
45319;DHT22;31057;48.498;32.260;2023-12-22T07:13:09;1.70;99.90
45319;DHT22;31057;48.498;32.260;2023-12-22T07:15:11;1.80;99.90
45319;DHT22;31057;48.498;32.260;2023-12-22T07:17:13;1.80;99.90
45319;DHT22;31057;48.498;32.260;2023-12-22T07:19:15;1.80;99.90
45319;DHT22;31057;48.498;32.260;2023-12-22T07:21:17;1.80;99.90
45319;DHT22;31057;48.498;32.260;2023-12-22T07:23:22;1.80;99.90
45319;DHT22;31057;48.498;32.260;2023-12-22T07:25:24;1.80;99.90
45319;DHT22;31057;48.498;32.260;2023-12-22T07:27:26;1.80;99.90
45319;DHT22;31057;48.498;32.260;2023-12-22T07:29:29;1.90;99.90
45319;DHT22;31057;48.498;32.260;2023-12-22T07:31:31;1.90;99.90
45319;DHT22;31057;48.498;32.260;2023-12-22T07:33:32;2.00;99.90
45319;DHT22;31057;48.498;32.260;2023-12-22T07:35:35;2.00;99.90
45319;DHT22;31057;48.498;32.260;2023-12-22T07:37:37;2.20;99.90
45319;DHT22;31057;48.498;32.260;2023-12-22T07:39:40;2.20;99.90
45319;DHT22;31057;48.498;32.260;2023-12-22T07:41:43;2.40;99.90
45319;DHT22;31057;48.498;32.260;2023-12-22T07:43:45;2.30;99.90
45319;DHT22;31057;48.498;32.260;2023-12-22T07:45:47;2.30;99.90
45319;DHT22;31057;48.498;32.260;2023-12-22T07:47:49;2.40;99.90
45319;DHT22;31057;48.498;32.260;2023-12-22T07:49:51;2.40;99.90
45319;DHT22;31057;48.498;32.260;2023-12-22T07:51:53;2.30;99.90
45319;DHT22;31057;48.498;32.260;2023-12-22T07:53:55;2.40;99.90
45319;DHT22;31057;48.498;32.260;2023-12-22T07:55:57;2.40;99.90
45319;DHT22;31057;48.498;32.260;2023-12-22T07:58:00;2.50;99.90
45319;DHT22;31057;48.498;32.260;2023-12-22T08:00:02;2.50;99.90
45319;DHT22;31057;48.498;32.260;2023-12-22T08:02:05;2.50;99.90
45319;DHT22;31057;48.498;32.260;2023-12-22T08:04:06;2.50;99.90
45319;DHT22;31057;48.498;32.260;2023-12-22T08:06:08;2.50;99.90
45319;DHT22;31057;48.498;32.260;2023-12-22T08:08:13;2.60;99.90
45319;DHT22;31057;48.498;32.260;2023-12-22T08:10:14;2.60;99.90
45319;DHT22;31057;48.498;32.260;2023-12-22T08:12:17;2.60;99.90
45319;DHT22;31057;48.498;32.260;2023-12-22T08:14:19;2.60;99.90
45319;DHT22;31057;48.498;32.260;2023-12-22T08:16:21;2.70;99.90
45319;DHT22;31057;48.498;32.260;2023-12-22T08:18:23;2.80;99.90
45319;DHT22;31057;48.498;32.260;2023-12-22T08:20:25;2.80;99.90
45319;DHT22;31057;48.498;32.260;2023-12-22T08:22:33;2.80;99.90
45319;DHT22;31057;48.498;32.260;2023-12-22T08:24:35;2.90;99.90
45319;DHT22;31057;48.498;32.260;2023-12-22T08:26:37;2.90;99.90
45319;DHT22;31057;48.498;32.260;2023-12-22T08:28:39;2.80;99.90
45319;DHT22;31057;48.498;32.260;2023-12-22T08:30:41;2.80;99.90
45319;DHT22;31057;48.498;32.260;2023-12-22T08:32:43;3.00;99.90
45319;DHT22;31057;48.498;32.260;2023-12-22T08:34:45;3.00;99.90
45319;DHT22;31057;48.498;32.260;2023-12-22T08:36:47;2.90;99.90
45319;DHT22;31057;48.498;32.260;2023-12-22T08:38:48;2.90;99.90
45319;DHT22;31057;48.498;32.260;2023-12-22T08:40:51;2.80;99.90
45319;DHT22;31057;48.498;32.260;2023-12-22T08:42:54;2.90;99.90
45319;DHT22;31057;48.498;32.260;2023-12-22T08:44:56;2.90;99.90
45319;DHT22;31057;48.498;32.260;2023-12-22T08:46:58;3.00;99.90
45319;DHT22;31057;48.498;32.260;2023-12-22T08:49:00;3.00;99.90
45319;DHT22;31057;48.498;32.260;2023-12-22T08:51:02;3.00;99.90
45319;DHT22;31057;48.498;32.260;2023-12-22T08:53:05;3.00;99.90
45319;DHT22;31057;48.498;32.260;2023-12-22T08:55:07;3.20;99.90
45319;DHT22;31057;48.498;32.260;2023-12-22T08:57:08;3.30;99.90
45319;DHT22;31057;48.498;32.260;2023-12-22T08:59:12;3.30;99.90
45319;DHT22;31057;48.498;32.260;2023-12-22T09:01:14;3.30;99.90
45319;DHT22;31057;48.498;32.260;2023-12-22T09:03:16;3.40;99.90
45319;DHT22;31057;48.498;32.260;2023-12-22T09:05:18;3.50;99.90
45319;DHT22;31057;48.498;32.260;2023-12-22T09:07:22;3.50;99.90
45319;DHT22;31057;48.498;32.260;2023-12-22T09:09:24;3.60;99.90
45319;DHT22;31057;48.498;32.260;2023-12-22T09:11:26;3.60;99.90
45319;DHT22;31057;48.498;32.260;2023-12-22T09:13:28;3.60;99.90
45319;DHT22;31057;48.498;32.260;2023-12-22T09:15:31;3.60;99.90
45319;DHT22;31057;48.498;32.260;2023-12-22T09:17:33;3.70;99.90
45319;DHT22;31057;48.498;32.260;2023-12-22T09:19:36;3.70;99.90
45319;DHT22;31057;48.498;32.260;2023-12-22T09:21:40;3.80;99.90
45319;DHT22;31057;48.498;32.260;2023-12-22T09:23:43;3.90;99.90
45319;DHT22;31057;48.498;32.260;2023-12-22T09:25:47;3.90;99.90
45319;DHT22;31057;48.498;32.260;2023-12-22T09:27:50;4.10;99.90
45319;DHT22;31057;48.498;32.260;2023-12-22T09:29:52;4.10;99.90
45319;DHT22;31057;48.498;32.260;2023-12-22T09:31:53;4.10;99.90
45319;DHT22;31057;48.498;32.260;2023-12-22T09:33:55;4.20;99.90
45319;DHT22;31057;48.498;32.260;2023-12-22T09:35:58;4.30;99.90
45319;DHT22;31057;48.498;32.260;2023-12-22T09:38:01;4.30;99.90
45319;DHT22;31057;48.498;32.260;2023-12-22T09:40:02;4.30;99.90
45319;DHT22;31057;48.498;32.260;2023-12-22T09:42:04;4.30;99.90
45319;DHT22;31057;48.498;32.260;2023-12-22T09:44:06;4.40;99.90
45319;DHT22;31057;48.498;32.260;2023-12-22T09:46:08;4.50;99.90
45319;DHT22;31057;48.498;32.260;2023-12-22T09:48:12;4.60;99.90
45319;DHT22;31057;48.498;32.260;2023-12-22T09:50:18;4.60;99.90
45319;DHT22;31057;48.498;32.260;2023-12-22T09:52:21;4.70;99.90
45319;DHT22;31057;48.498;32.260;2023-12-22T09:54:23;4.70;99.90
45319;DHT22;31057;48.498;32.260;2023-12-22T09:56:27;4.70;99.90
45319;DHT22;31057;48.498;32.260;2023-12-22T09:58:30;4.80;99.90
45319;DHT22;31057;48.498;32.260;2023-12-22T10:00:32;4.80;99.90
45319;DHT22;31057;48.498;32.260;2023-12-22T10:02:44;4.80;99.90
45319;DHT22;31057;48.498;32.260;2023-12-22T10:04:49;4.90;99.90
45319;DHT22;31057;48.498;32.260;2023-12-22T10:06:51;5.10;99.90
45319;DHT22;31057;48.498;32.260;2023-12-22T10:08:53;5.20;99.90
45319;DHT22;31057;48.498;32.260;2023-12-22T10:10:55;5.20;99.90
45319;DHT22;31057;48.498;32.260;2023-12-22T10:12:58;5.30;99.90
45319;DHT22;31057;48.498;32.260;2023-12-22T10:15:00;5.30;99.90
45319;DHT22;31057;48.498;32.260;2023-12-22T10:17:02;5.20;99.90
45319;DHT22;31057;48.498;32.260;2023-12-22T10:19:04;5.20;99.90
45319;DHT22;31057;48.498;32.260;2023-12-22T10:21:07;5.30;99.90
45319;DHT22;31057;48.498;32.260;2023-12-22T10:23:08;5.20;99.90
45319;DHT22;31057;48.498;32.260;2023-12-22T10:25:10;5.20;99.90
45319;DHT22;31057;48.498;32.260;2023-12-22T10:27:13;5.20;99.90
45319;DHT22;31057;48.498;32.260;2023-12-22T10:29:15;5.20;99.90
45319;DHT22;31057;48.498;32.260;2023-12-22T10:31:16;5.30;99.90
45319;DHT22;31057;48.498;32.260;2023-12-22T10:33:18;5.30;99.90
45319;DHT22;31057;48.498;32.260;2023-12-22T10:35:21;5.40;99.90
45319;DHT22;31057;48.498;32.260;2023-12-22T10:37:22;5.30;99.90
45319;DHT22;31057;48.498;32.260;2023-12-22T10:39:29;5.30;99.90
45319;DHT22;31057;48.498;32.260;2023-12-22T10:41:31;5.30;99.90
45319;DHT22;31057;48.498;32.260;2023-12-22T10:43:39;5.30;99.90
45319;DHT22;31057;48.498;32.260;2023-12-22T10:45:42;5.30;99.90
45319;DHT22;31057;48.498;32.260;2023-12-22T10:47:44;5.30;99.90
45319;DHT22;31057;48.498;32.260;2023-12-22T10:49:46;5.30;99.90
45319;DHT22;31057;48.498;32.260;2023-12-22T10:51:48;5.20;99.90
45319;DHT22;31057;48.498;32.260;2023-12-22T10:53:51;5.20;99.90
45319;DHT22;31057;48.498;32.260;2023-12-22T10:55:53;5.20;99.90
45319;DHT22;31057;48.498;32.260;2023-12-22T10:57:55;5.20;99.90
45319;DHT22;31057;48.498;32.260;2023-12-22T10:59:57;5.20;99.90
45319;DHT22;31057;48.498;32.260;2023-12-22T11:01:59;5.20;99.90
45319;DHT22;31057;48.498;32.260;2023-12-22T11:04:02;5.20;99.90
45319;DHT22;31057;48.498;32.260;2023-12-22T11:06:05;5.20;99.90
45319;DHT22;31057;48.498;32.260;2023-12-22T11:08:08;5.30;99.90
45319;DHT22;31057;48.498;32.260;2023-12-22T11:10:11;5.30;99.90
45319;DHT22;31057;48.498;32.260;2023-12-22T11:12:14;5.30;99.90
45319;DHT22;31057;48.498;32.260;2023-12-22T11:14:16;5.30;99.90
45319;DHT22;31057;48.498;32.260;2023-12-22T11:16:19;5.30;99.90
45319;DHT22;31057;48.498;32.260;2023-12-22T11:18:21;5.40;99.90
45319;DHT22;31057;48.498;32.260;2023-12-22T11:20:23;5.30;99.90
45319;DHT22;31057;48.498;32.260;2023-12-22T11:22:25;5.30;99.90
45319;DHT22;31057;48.498;32.260;2023-12-22T11:24:28;5.30;99.90
45319;DHT22;31057;48.498;32.260;2023-12-22T11:26:31;5.30;99.90
45319;DHT22;31057;48.498;32.260;2023-12-22T11:28:34;5.30;99.90
45319;DHT22;31057;48.498;32.260;2023-12-22T11:30:36;5.30;99.90
45319;DHT22;31057;48.498;32.260;2023-12-22T11:32:39;5.30;99.90
45319;DHT22;31057;48.498;32.260;2023-12-22T11:34:41;5.30;99.90
45319;DHT22;31057;48.498;32.260;2023-12-22T11:36:44;5.30;99.90
45319;DHT22;31057;48.498;32.260;2023-12-22T11:38:47;5.40;99.90
45319;DHT22;31057;48.498;32.260;2023-12-22T11:40:49;5.30;99.90
45319;DHT22;31057;48.498;32.260;2023-12-22T11:42:54;5.30;99.90
45319;DHT22;31057;48.498;32.260;2023-12-22T11:44:56;5.30;99.90
45319;DHT22;31057;48.498;32.260;2023-12-22T11:47:05;5.40;99.90
45319;DHT22;31057;48.498;32.260;2023-12-22T11:49:07;5.40;99.90
45319;DHT22;31057;48.498;32.260;2023-12-22T11:51:15;5.50;99.90
45319;DHT22;31057;48.498;32.260;2023-12-22T11:55:55;5.40;99.90
45319;DHT22;31057;48.498;32.260;2023-12-22T11:57:42;5.40;99.90
45319;DHT22;31057;48.498;32.260;2023-12-22T11:59:44;5.40;99.90
45319;DHT22;31057;48.498;32.260;2023-12-22T12:01:46;5.40;99.90
45319;DHT22;31057;48.498;32.260;2023-12-22T12:03:56;5.40;99.90
45319;DHT22;31057;48.498;32.260;2023-12-22T12:06:10;5.40;99.90
45319;DHT22;31057;48.498;32.260;2023-12-22T12:08:12;5.40;99.90
45319;DHT22;31057;48.498;32.260;2023-12-22T12:12:33;5.40;99.90
45319;DHT22;31057;48.498;32.260;2023-12-22T12:14:37;5.40;99.90
45319;DHT22;31057;48.498;32.260;2023-12-22T12:16:49;5.40;99.90
45319;DHT22;31057;48.498;32.260;2023-12-22T12:18:51;5.40;99.90
45319;DHT22;31057;48.498;32.260;2023-12-22T12:20:54;5.40;99.90
45319;DHT22;31057;48.498;32.260;2023-12-22T12:22:56;5.40;99.90
45319;DHT22;31057;48.498;32.260;2023-12-22T12:24:58;5.40;99.90
45319;DHT22;31057;48.498;32.260;2023-12-22T12:27:03;5.40;99.90
45319;DHT22;31057;48.498;32.260;2023-12-22T12:29:04;5.40;99.90
45319;DHT22;31057;48.498;32.260;2023-12-22T12:31:08;5.40;99.90
45319;DHT22;31057;48.498;32.260;2023-12-22T12:33:10;5.40;99.90
45319;DHT22;31057;48.498;32.260;2023-12-22T12:35:13;5.40;99.90
45319;DHT22;31057;48.498;32.260;2023-12-22T12:37:15;5.40;99.90
45319;DHT22;31057;48.498;32.260;2023-12-22T12:39:17;5.40;99.90
45319;DHT22;31057;48.498;32.260;2023-12-22T12:41:31;5.50;99.90
45319;DHT22;31057;48.498;32.260;2023-12-22T12:43:37;5.50;99.90
45319;DHT22;31057;48.498;32.260;2023-12-22T12:45:42;5.40;99.90
45319;DHT22;31057;48.498;32.260;2023-12-22T12:47:53;5.50;99.90
45319;DHT22;31057;48.498;32.260;2023-12-22T12:49:56;5.40;99.90
45319;DHT22;31057;48.498;32.260;2023-12-22T12:51:58;5.40;99.90
45319;DHT22;31057;48.498;32.260;2023-12-22T12:54:03;5.50;99.90
45319;DHT22;31057;48.498;32.260;2023-12-22T12:56:05;5.30;99.90
45319;DHT22;31057;48.498;32.260;2023-12-22T12:58:07;5.40;99.90